sensor_id;sensor_type;location;lat;lon;timestamp;temperature;humidity
74368;DHT22;64991;41.090;-8.118;2023-03-01T00:01:16;16.30;61.20
74368;DHT22;64991;41.090;-8.118;2023-03-01T00:06:23;16.30;61.00
74368;DHT22;64991;41.090;-8.118;2023-03-01T00:11:28;16.30;61.00
74368;DHT22;64991;41.090;-8.118;2023-03-01T00:16:33;16.30;61.10
74368;DHT22;64991;41.090;-8.118;2023-03-01T00:21:39;16.30;61.10
74368;DHT22;64991;41.090;-8.118;2023-03-01T00:26:43;16.30;60.80
74368;DHT22;64991;41.090;-8.118;2023-03-01T00:31:46;16.30;61.00
74368;DHT22;64991;41.090;-8.118;2023-03-01T00:36:51;16.20;61.00
74368;DHT22;64991;41.090;-8.118;2023-03-01T00:41:55;16.20;60.60
74368;DHT22;64991;41.090;-8.118;2023-03-01T00:46:59;16.20;60.90
74368;DHT22;64991;41.090;-8.118;2023-03-01T00:52:04;16.20;60.90
74368;DHT22;64991;41.090;-8.118;2023-03-01T00:57:07;16.30;61.10
74368;DHT22;64991;41.090;-8.118;2023-03-01T01:02:11;16.20;60.80
74368;DHT22;64991;41.090;-8.118;2023-03-01T01:07:16;16.20;60.70
74368;DHT22;64991;41.090;-8.118;2023-03-01T01:12:21;16.20;60.60
74368;DHT22;64991;41.090;-8.118;2023-03-01T01:17:25;16.20;60.50
74368;DHT22;64991;41.090;-8.118;2023-03-01T01:22:30;16.20;60.40
74368;DHT22;64991;41.090;-8.118;2023-03-01T01:27:33;16.20;60.70
74368;DHT22;64991;41.090;-8.118;2023-03-01T01:32:37;16.20;60.50
74368;DHT22;64991;41.090;-8.118;2023-03-01T01:37:42;16.20;60.60
74368;DHT22;64991;41.090;-8.118;2023-03-01T01:42:45;16.20;59.90
74368;DHT22;64991;41.090;-8.118;2023-03-01T01:47:49;16.10;60.50
74368;DHT22;64991;41.090;-8.118;2023-03-01T01:52:55;16.00;60.60
74368;DHT22;64991;41.090;-8.118;2023-03-01T01:58:00;16.00;60.80
74368;DHT22;64991;41.090;-8.118;2023-03-01T02:03:07;16.10;60.60
74368;DHT22;64991;41.090;-8.118;2023-03-01T02:08:13;16.10;60.50
74368;DHT22;64991;41.090;-8.118;2023-03-01T02:13:17;16.00;60.10
74368;DHT22;64991;41.090;-8.118;2023-03-01T02:18:21;16.00;60.70
74368;DHT22;64991;41.090;-8.118;2023-03-01T02:23:28;16.10;60.50
74368;DHT22;64991;41.090;-8.118;2023-03-01T02:28:34;16.00;60.50
74368;DHT22;64991;41.090;-8.118;2023-03-01T02:33:39;16.00;60.50
74368;DHT22;64991;41.090;-8.118;2023-03-01T02:38:43;16.00;60.10
74368;DHT22;64991;41.090;-8.118;2023-03-01T02:43:48;16.10;60.00
74368;DHT22;64991;41.090;-8.118;2023-03-01T02:48:52;16.00;60.10
74368;DHT22;64991;41.090;-8.118;2023-03-01T02:53:59;16.10;60.00
74368;DHT22;64991;41.090;-8.118;2023-03-01T02:59:15;16.00;59.70
74368;DHT22;64991;41.090;-8.118;2023-03-01T03:04:19;16.00;59.80
74368;DHT22;64991;41.090;-8.118;2023-03-01T03:09:23;16.00;59.80
74368;DHT22;64991;41.090;-8.118;2023-03-01T03:14:28;15.90;60.00
74368;DHT22;64991;41.090;-8.118;2023-03-01T03:19:32;16.00;59.80
74368;DHT22;64991;41.090;-8.118;2023-03-01T03:24:35;15.90;59.90
74368;DHT22;64991;41.090;-8.118;2023-03-01T03:29:41;16.00;59.70
74368;DHT22;64991;41.090;-8.118;2023-03-01T03:34:44;15.90;59.70
74368;DHT22;64991;41.090;-8.118;2023-03-01T03:39:48;15.90;59.70
74368;DHT22;64991;41.090;-8.118;2023-03-01T03:44:53;15.90;59.70
74368;DHT22;64991;41.090;-8.118;2023-03-01T03:49:56;15.80;59.80
74368;DHT22;64991;41.090;-8.118;2023-03-01T03:55:00;15.90;59.70
74368;DHT22;64991;41.090;-8.118;2023-03-01T04:00:06;15.90;59.60
74368;DHT22;64991;41.090;-8.118;2023-03-01T04:05:15;15.90;59.20
74368;DHT22;64991;41.090;-8.118;2023-03-01T04:10:19;15.90;59.40
74368;DHT22;64991;41.090;-8.118;2023-03-01T04:15:24;15.80;59.30
74368;DHT22;64991;41.090;-8.118;2023-03-01T04:20:29;15.80;59.50
74368;DHT22;64991;41.090;-8.118;2023-03-01T04:25:37;15.80;59.20
74368;DHT22;64991;41.090;-8.118;2023-03-01T04:30:42;15.70;59.40
74368;DHT22;64991;41.090;-8.118;2023-03-01T04:35:45;15.70;59.40
74368;DHT22;64991;41.090;-8.118;2023-03-01T04:40:51;15.80;59.20
74368;DHT22;64991;41.090;-8.118;2023-03-01T04:45:56;15.80;59.20
74368;DHT22;64991;41.090;-8.118;2023-03-01T04:51:05;15.80;58.60
74368;DHT22;64991;41.090;-8.118;2023-03-01T04:56:09;15.80;58.90
74368;DHT22;64991;41.090;-8.118;2023-03-01T05:01:15;15.80;58.90
74368;DHT22;64991;41.090;-8.118;2023-03-01T05:06:20;15.80;59.30
74368;DHT22;64991;41.090;-8.118;2023-03-01T05:11:24;15.80;59.00
74368;DHT22;64991;41.090;-8.118;2023-03-01T05:16:31;15.70;59.00
74368;DHT22;64991;41.090;-8.118;2023-03-01T05:21:37;15.70;58.70
74368;DHT22;64991;41.090;-8.118;2023-03-01T05:27:01;15.70;59.20
74368;DHT22;64991;41.090;-8.118;2023-03-01T05:32:06;15.80;58.80
74368;DHT22;64991;41.090;-8.118;2023-03-01T05:37:11;15.70;58.70
74368;DHT22;64991;41.090;-8.118;2023-03-01T05:42:15;15.70;59.00
74368;DHT22;64991;41.090;-8.118;2023-03-01T05:47:19;15.70;58.90
74368;DHT22;64991;41.090;-8.118;2023-03-01T05:52:23;15.70;58.90
74368;DHT22;64991;41.090;-8.118;2023-03-01T05:57:27;15.60;59.10
74368;DHT22;64991;41.090;-8.118;2023-03-01T06:02:32;15.70;58.90
74368;DHT22;64991;41.090;-8.118;2023-03-01T06:07:36;15.60;58.90
74368;DHT22;64991;41.090;-8.118;2023-03-01T06:12:41;15.70;59.00
74368;DHT22;64991;41.090;-8.118;2023-03-01T06:17:46;15.60;59.10
74368;DHT22;64991;41.090;-8.118;2023-03-01T06:22:50;15.60;59.20
74368;DHT22;64991;41.090;-8.118;2023-03-01T06:27:54;15.60;59.10
74368;DHT22;64991;41.090;-8.118;2023-03-01T06:32:59;15.60;58.70
74368;DHT22;64991;41.090;-8.118;2023-03-01T06:38:03;15.60;59.30
74368;DHT22;64991;41.090;-8.118;2023-03-01T06:43:07;15.60;59.20
74368;DHT22;64991;41.090;-8.118;2023-03-01T06:48:12;15.60;59.30
74368;DHT22;64991;41.090;-8.118;2023-03-01T06:53:16;15.60;59.00
74368;DHT22;64991;41.090;-8.118;2023-03-01T06:58:19;15.50;59.10
74368;DHT22;64991;41.090;-8.118;2023-03-01T07:03:24;15.50;59.00
74368;DHT22;64991;41.090;-8.118;2023-03-01T07:08:28;15.60;59.40
74368;DHT22;64991;41.090;-8.118;2023-03-01T07:13:31;15.60;58.80
74368;DHT22;64991;41.090;-8.118;2023-03-01T07:18:36;15.60;59.10
74368;DHT22;64991;41.090;-8.118;2023-03-01T07:23:40;15.60;59.10
74368;DHT22;64991;41.090;-8.118;2023-03-01T07:28:44;15.60;59.00
74368;DHT22;64991;41.090;-8.118;2023-03-01T07:33:48;15.50;59.00
74368;DHT22;64991;41.090;-8.118;2023-03-01T07:38:52;15.50;59.30
74368;DHT22;64991;41.090;-8.118;2023-03-01T07:43:57;15.60;59.10
74368;DHT22;64991;41.090;-8.118;2023-03-01T07:49:02;15.50;59.20
74368;DHT22;64991;41.090;-8.118;2023-03-01T07:54:06;15.60;59.40
74368;DHT22;64991;41.090;-8.118;2023-03-01T07:59:10;15.60;59.30
74368;DHT22;64991;41.090;-8.118;2023-03-01T08:04:14;15.60;59.40
74368;DHT22;64991;41.090;-8.118;2023-03-01T08:09:18;15.60;59.10
74368;DHT22;64991;41.090;-8.118;2023-03-01T08:14:22;15.60;59.20
74368;DHT22;64991;41.090;-8.118;2023-03-01T08:19:27;15.50;59.60
74368;DHT22;64991;41.090;-8.118;2023-03-01T08:24:30;15.50;59.40
74368;DHT22;64991;41.090;-8.118;2023-03-01T08:29:34;15.50;59.40
74368;DHT22;64991;41.090;-8.118;2023-03-01T08:34:39;15.60;59.70
74368;DHT22;64991;41.090;-8.118;2023-03-01T08:39:43;15.50;59.20
74368;DHT22;64991;41.090;-8.118;2023-03-01T08:44:46;15.50;59.60
74368;DHT22;64991;41.090;-8.118;2023-03-01T08:49:51;15.50;59.50
74368;DHT22;64991;41.090;-8.118;2023-03-01T08:54:55;15.60;59.40
74368;DHT22;64991;41.090;-8.118;2023-03-01T08:59:58;15.60;59.40
74368;DHT22;64991;41.090;-8.118;2023-03-01T09:05:04;15.60;59.80
74368;DHT22;64991;41.090;-8.118;2023-03-01T09:10:08;15.50;59.80
74368;DHT22;64991;41.090;-8.118;2023-03-01T09:15:13;15.60;60.20
74368;DHT22;64991;41.090;-8.118;2023-03-01T09:20:18;15.60;59.60
74368;DHT22;64991;41.090;-8.118;2023-03-01T09:25:21;15.60;59.50
74368;DHT22;64991;41.090;-8.118;2023-03-01T09:30:25;15.70;59.60
74368;DHT22;64991;41.090;-8.118;2023-03-01T09:35:30;15.60;59.40
74368;DHT22;64991;41.090;-8.118;2023-03-01T09:40:34;15.70;59.40
74368;DHT22;64991;41.090;-8.118;2023-03-01T09:45:38;15.60;59.70
74368;DHT22;64991;41.090;-8.118;2023-03-01T09:50:45;15.70;59.60
74368;DHT22;64991;41.090;-8.118;2023-03-01T09:55:50;15.70;59.70
74368;DHT22;64991;41.090;-8.118;2023-03-01T10:00:57;15.80;59.70
74368;DHT22;64991;41.090;-8.118;2023-03-01T10:06:06;15.80;59.60
74368;DHT22;64991;41.090;-8.118;2023-03-01T10:11:35;15.70;59.30
74368;DHT22;64991;41.090;-8.118;2023-03-01T10:16:43;15.80;59.80
74368;DHT22;64991;41.090;-8.118;2023-03-01T10:21:51;15.70;59.70
74368;DHT22;64991;41.090;-8.118;2023-03-01T10:26:55;15.70;60.00
74368;DHT22;64991;41.090;-8.118;2023-03-01T10:31:59;15.70;59.30
74368;DHT22;64991;41.090;-8.118;2023-03-01T10:37:10;15.80;59.60
74368;DHT22;64991;41.090;-8.118;2023-03-01T10:42:19;15.70;59.80
74368;DHT22;64991;41.090;-8.118;2023-03-01T10:47:33;15.70;59.70
74368;DHT22;64991;41.090;-8.118;2023-03-01T10:52:40;15.80;60.00
74368;DHT22;64991;41.090;-8.118;2023-03-01T10:57:44;15.80;59.90
74368;DHT22;64991;41.090;-8.118;2023-03-01T11:02:48;15.80;60.10
74368;DHT22;64991;41.090;-8.118;2023-03-01T11:07:55;15.60;56.90
74368;DHT22;64991;41.090;-8.118;2023-03-01T11:13:06;15.40;56.40
74368;DHT22;64991;41.090;-8.118;2023-03-01T11:18:18;15.40;54.70
74368;DHT22;64991;41.090;-8.118;2023-03-01T11:23:33;15.30;54.00
74368;DHT22;64991;41.090;-8.118;2023-03-01T11:28:37;15.20;54.10
74368;DHT22;64991;41.090;-8.118;2023-03-01T11:33:42;15.50;52.50
74368;DHT22;64991;41.090;-8.118;2023-03-01T11:38:49;15.60;51.10
74368;DHT22;64991;41.090;-8.118;2023-03-01T11:43:54;15.80;51.00
74368;DHT22;64991;41.090;-8.118;2023-03-01T11:49:03;15.70;50.60
74368;DHT22;64991;41.090;-8.118;2023-03-01T11:54:23;15.80;50.70
74368;DHT22;64991;41.090;-8.118;2023-03-01T12:05:04;15.80;49.20
74368;DHT22;64991;41.090;-8.118;2023-03-01T12:10:25;15.80;49.10
74368;DHT22;64991;41.090;-8.118;2023-03-01T12:15:33;15.70;48.60
74368;DHT22;64991;41.090;-8.118;2023-03-01T12:20:44;15.80;48.80
74368;DHT22;64991;41.090;-8.118;2023-03-01T12:25:54;15.80;48.30
74368;DHT22;64991;41.090;-8.118;2023-03-01T12:31:16;15.80;48.40
74368;DHT22;64991;41.090;-8.118;2023-03-01T12:36:50;15.80;48.30
74368;DHT22;64991;41.090;-8.118;2023-03-01T12:42:03;15.80;48.10
74368;DHT22;64991;41.090;-8.118;2023-03-01T12:47:15;15.80;47.80
74368;DHT22;64991;41.090;-8.118;2023-03-01T12:52:24;15.70;48.00
74368;DHT22;64991;41.090;-8.118;2023-03-01T12:57:33;15.80;47.90
74368;DHT22;64991;41.090;-8.118;2023-03-01T13:02:42;15.80;47.70
74368;DHT22;64991;41.090;-8.118;2023-03-01T13:07:50;15.80;47.70
74368;DHT22;64991;41.090;-8.118;2023-03-01T13:13:02;15.80;47.90
74368;DHT22;64991;41.090;-8.118;2023-03-01T13:18:28;16.00;48.10
74368;DHT22;64991;41.090;-8.118;2023-03-01T13:23:36;16.30;48.20
74368;DHT22;64991;41.090;-8.118;2023-03-01T13:34:02;16.90;48.20
74368;DHT22;64991;41.090;-8.118;2023-03-01T13:44:35;16.90;49.20
74368;DHT22;64991;41.090;-8.118;2023-03-01T13:49:42;17.00;50.00
74368;DHT22;64991;41.090;-8.118;2023-03-01T13:54:47;17.20;50.40
74368;DHT22;64991;41.090;-8.118;2023-03-01T13:59:52;17.20;50.60
74368;DHT22;64991;41.090;-8.118;2023-03-01T14:04:56;17.30;50.30
74368;DHT22;64991;41.090;-8.118;2023-03-01T14:10:01;17.50;50.70
74368;DHT22;64991;41.090;-8.118;2023-03-01T14:15:08;17.70;50.60
74368;DHT22;64991;41.090;-8.118;2023-03-01T14:20:19;17.60;51.30
74368;DHT22;64991;41.090;-8.118;2023-03-01T14:25:28;17.80;51.30
74368;DHT22;64991;41.090;-8.118;2023-03-01T14:30:36;17.70;51.50
74368;DHT22;64991;41.090;-8.118;2023-03-01T14:35:41;17.60;52.00
74368;DHT22;64991;41.090;-8.118;2023-03-01T14:40:46;17.50;52.40
74368;DHT22;64991;41.090;-8.118;2023-03-01T14:45:53;17.50;52.60
74368;DHT22;64991;41.090;-8.118;2023-03-01T14:50:56;17.50;52.80
74368;DHT22;64991;41.090;-8.118;2023-03-01T14:56:01;17.30;50.30
74368;DHT22;64991;41.090;-8.118;2023-03-01T15:01:07;17.50;50.60
74368;DHT22;64991;41.090;-8.118;2023-03-01T15:06:11;17.60;51.90
74368;DHT22;64991;41.090;-8.118;2023-03-01T15:11:20;17.70;52.30
74368;DHT22;64991;41.090;-8.118;2023-03-01T15:16:28;17.70;52.70
74368;DHT22;64991;41.090;-8.118;2023-03-01T15:21:34;17.80;52.80
74368;DHT22;64991;41.090;-8.118;2023-03-01T15:26:39;17.80;53.10
74368;DHT22;64991;41.090;-8.118;2023-03-01T15:31:53;17.80;53.30
74368;DHT22;64991;41.090;-8.118;2023-03-01T15:36:59;17.80;53.50
74368;DHT22;64991;41.090;-8.118;2023-03-01T15:42:04;17.90;53.60
74368;DHT22;64991;41.090;-8.118;2023-03-01T15:47:23;17.90;53.20
74368;DHT22;64991;41.090;-8.118;2023-03-01T15:52:32;17.90;53.80
74368;DHT22;64991;41.090;-8.118;2023-03-01T15:57:41;17.90;53.90
74368;DHT22;64991;41.090;-8.118;2023-03-01T16:02:46;18.00;54.10
74368;DHT22;64991;41.090;-8.118;2023-03-01T16:07:49;17.90;54.20
74368;DHT22;64991;41.090;-8.118;2023-03-01T16:12:53;18.00;54.30
74368;DHT22;64991;41.090;-8.118;2023-03-01T16:17:58;18.10;54.40
74368;DHT22;64991;41.090;-8.118;2023-03-01T16:23:02;18.10;54.30
74368;DHT22;64991;41.090;-8.118;2023-03-01T16:28:07;18.20;53.90
74368;DHT22;64991;41.090;-8.118;2023-03-01T16:33:13;18.20;54.00
74368;DHT22;64991;41.090;-8.118;2023-03-01T16:38:34;18.10;54.80
74368;DHT22;64991;41.090;-8.118;2023-03-01T16:43:38;18.60;54.00
74368;DHT22;64991;41.090;-8.118;2023-03-01T16:48:43;18.30;54.50
74368;DHT22;64991;41.090;-8.118;2023-03-01T16:53:48;18.40;54.60
74368;DHT22;64991;41.090;-8.118;2023-03-01T16:58:52;18.40;54.60
74368;DHT22;64991;41.090;-8.118;2023-03-01T17:03:57;18.40;54.80
74368;DHT22;64991;41.090;-8.118;2023-03-01T17:09:01;18.40;54.90
74368;DHT22;64991;41.090;-8.118;2023-03-01T17:14:05;18.40;55.00
74368;DHT22;64991;41.090;-8.118;2023-03-01T17:19:10;18.60;55.10
74368;DHT22;64991;41.090;-8.118;2023-03-01T17:24:15;18.50;55.20
74368;DHT22;64991;41.090;-8.118;2023-03-01T17:29:19;18.50;55.40
74368;DHT22;64991;41.090;-8.118;2023-03-01T17:34:24;18.60;55.30
74368;DHT22;64991;41.090;-8.118;2023-03-01T17:39:27;18.50;55.40
74368;DHT22;64991;41.090;-8.118;2023-03-01T17:44:37;18.60;55.40
74368;DHT22;64991;41.090;-8.118;2023-03-01T17:49:44;18.70;55.10
74368;DHT22;64991;41.090;-8.118;2023-03-01T17:54:47;16.20;51.90
74368;DHT22;64991;41.090;-8.118;2023-03-01T17:59:51;16.90;52.00
74368;DHT22;64991;41.090;-8.118;2023-03-01T18:04:57;17.60;51.60
74368;DHT22;64991;41.090;-8.118;2023-03-01T18:10:01;18.00;51.60
74368;DHT22;64991;41.090;-8.118;2023-03-01T18:15:04;18.20;51.60
74368;DHT22;64991;41.090;-8.118;2023-03-01T18:20:10;18.20;51.80
74368;DHT22;64991;41.090;-8.118;2023-03-01T18:25:16;18.30;52.20
74368;DHT22;64991;41.090;-8.118;2023-03-01T18:30:19;18.40;52.10
74368;DHT22;64991;41.090;-8.118;2023-03-01T18:35:24;18.70;52.30
74368;DHT22;64991;41.090;-8.118;2023-03-01T18:40:27;18.70;52.20
74368;DHT22;64991;41.090;-8.118;2023-03-01T18:45:32;18.60;52.40
74368;DHT22;64991;41.090;-8.118;2023-03-01T18:50:37;18.60;52.70
74368;DHT22;64991;41.090;-8.118;2023-03-01T18:55:41;18.70;52.70
74368;DHT22;64991;41.090;-8.118;2023-03-01T19:00:44;18.70;53.00
74368;DHT22;64991;41.090;-8.118;2023-03-01T19:05:49;18.60;53.30
74368;DHT22;64991;41.090;-8.118;2023-03-01T19:10:56;18.70;53.50
74368;DHT22;64991;41.090;-8.118;2023-03-01T19:16:03;18.70;53.80
74368;DHT22;64991;41.090;-8.118;2023-03-01T19:21:09;18.60;54.10
74368;DHT22;64991;41.090;-8.118;2023-03-01T19:26:14;18.90;53.80
74368;DHT22;64991;41.090;-8.118;2023-03-01T19:31:20;18.80;53.60
74368;DHT22;64991;41.090;-8.118;2023-03-01T19:36:27;18.70;54.40
74368;DHT22;64991;41.090;-8.118;2023-03-01T19:41:34;18.60;54.80
74368;DHT22;64991;41.090;-8.118;2023-03-01T19:46:38;18.40;55.10
74368;DHT22;64991;41.090;-8.118;2023-03-01T19:51:43;18.10;55.70
74368;DHT22;64991;41.090;-8.118;2023-03-01T19:56:46;18.00;56.00
74368;DHT22;64991;41.090;-8.118;2023-03-01T20:01:50;17.90;56.20
74368;DHT22;64991;41.090;-8.118;2023-03-01T20:06:55;18.10;56.30
74368;DHT22;64991;41.090;-8.118;2023-03-01T20:11:59;18.30;56.10
74368;DHT22;64991;41.090;-8.118;2023-03-01T20:17:02;18.50;55.80
74368;DHT22;64991;41.090;-8.118;2023-03-01T20:22:07;18.60;55.70
74368;DHT22;64991;41.090;-8.118;2023-03-01T20:27:10;18.50;55.70
74368;DHT22;64991;41.090;-8.118;2023-03-01T20:32:14;18.50;56.20
74368;DHT22;64991;41.090;-8.118;2023-03-01T20:37:19;18.50;55.80
74368;DHT22;64991;41.090;-8.118;2023-03-01T20:42:23;18.40;56.10
74368;DHT22;64991;41.090;-8.118;2023-03-01T20:47:29;18.30;56.20
74368;DHT22;64991;41.090;-8.118;2023-03-01T20:52:41;18.30;56.20
74368;DHT22;64991;41.090;-8.118;2023-03-01T20:57:48;18.20;56.60
74368;DHT22;64991;41.090;-8.118;2023-03-01T21:02:52;18.30;56.60
74368;DHT22;64991;41.090;-8.118;2023-03-01T21:07:57;18.30;56.60
74368;DHT22;64991;41.090;-8.118;2023-03-01T21:13:03;18.30;56.60
74368;DHT22;64991;41.090;-8.118;2023-03-01T21:18:07;18.20;56.80
74368;DHT22;64991;41.090;-8.118;2023-03-01T21:23:11;18.00;57.70
74368;DHT22;64991;41.090;-8.118;2023-03-01T21:28:16;18.00;57.70
74368;DHT22;64991;41.090;-8.118;2023-03-01T21:33:19;18.10;58.20
74368;DHT22;64991;41.090;-8.118;2023-03-01T21:38:24;18.10;58.00
74368;DHT22;64991;41.090;-8.118;2023-03-01T21:43:29;18.00;58.20
74368;DHT22;64991;41.090;-8.118;2023-03-01T21:48:32;17.90;58.20
74368;DHT22;64991;41.090;-8.118;2023-03-01T21:53:37;17.90;58.60
74368;DHT22;64991;41.090;-8.118;2023-03-01T21:58:41;17.90;58.30
74368;DHT22;64991;41.090;-8.118;2023-03-01T22:03:44;17.80;58.60
74368;DHT22;64991;41.090;-8.118;2023-03-01T22:08:50;17.60;57.10
74368;DHT22;64991;41.090;-8.118;2023-03-01T22:13:56;16.70;55.80
74368;DHT22;64991;41.090;-8.118;2023-03-01T22:18:59;17.00;56.60
74368;DHT22;64991;41.090;-8.118;2023-03-01T22:24:05;17.40;56.90
74368;DHT22;64991;41.090;-8.118;2023-03-01T22:29:10;17.70;56.80
74368;DHT22;64991;41.090;-8.118;2023-03-01T22:34:15;17.60;57.00
74368;DHT22;64991;41.090;-8.118;2023-03-01T22:39:21;17.70;57.20
74368;DHT22;64991;41.090;-8.118;2023-03-01T22:44:24;17.70;57.50
74368;DHT22;64991;41.090;-8.118;2023-03-01T22:49:28;17.70;57.50
74368;DHT22;64991;41.090;-8.118;2023-03-01T22:54:33;17.70;57.70
74368;DHT22;64991;41.090;-8.118;2023-03-01T22:59:37;17.70;58.30
74368;DHT22;64991;41.090;-8.118;2023-03-01T23:04:42;17.70;58.60
74368;DHT22;64991;41.090;-8.118;2023-03-01T23:09:49;17.60;58.60
74368;DHT22;64991;41.090;-8.118;2023-03-01T23:14:53;17.60;58.70
74368;DHT22;64991;41.090;-8.118;2023-03-01T23:19:57;17.60;59.00
74368;DHT22;64991;41.090;-8.118;2023-03-01T23:25:02;17.60;59.30
74368;DHT22;64991;41.090;-8.118;2023-03-01T23:30:08;17.50;59.50
74368;DHT22;64991;41.090;-8.118;2023-03-01T23:35:12;17.40;59.60
74368;DHT22;64991;41.090;-8.118;2023-03-01T23:40:18;17.40;59.90
74368;DHT22;64991;41.090;-8.118;2023-03-01T23:45:22;17.40;60.30
74368;DHT22;64991;41.090;-8.118;2023-03-01T23:50:25;17.40;60.30
74368;DHT22;64991;41.090;-8.118;2023-03-01T23:55:30;17.30;60.40
